sensor_id;sensor_type;location;lat;lon;timestamp;P1;durP1;ratioP1;P2;durP2;ratioP2
49876;SDS011;35771;48.978;9.294;2022-11-15T07:26:30;4.43;;;2.70;;
49876;SDS011;35771;48.978;9.294;2022-11-15T07:28:59;8.23;;;2.55;;
49876;SDS011;35771;48.978;9.294;2022-11-15T07:31:26;4.97;;;2.25;;
49876;SDS011;35771;48.978;9.294;2022-11-15T07:33:53;4.28;;;2.60;;
49876;SDS011;35771;48.978;9.294;2022-11-15T07:36:19;6.88;;;3.38;;
49876;SDS011;35771;48.978;9.294;2022-11-15T07:38:46;3.60;;;2.78;;
49876;SDS011;35771;48.978;9.294;2022-11-15T07:41:12;5.47;;;2.90;;
49876;SDS011;35771;48.978;9.294;2022-11-15T07:43:40;4.70;;;3.03;;
49876;SDS011;35771;48.978;9.294;2022-11-15T07:46:07;7.70;;;3.10;;
49876;SDS011;35771;48.978;9.294;2022-11-15T07:48:35;7.53;;;3.90;;
49876;SDS011;35771;48.978;9.294;2022-11-15T07:51:02;6.75;;;3.55;;
49876;SDS011;35771;48.978;9.294;2022-11-15T07:53:28;8.07;;;3.58;;
49876;SDS011;35771;48.978;9.294;2022-11-15T07:55:55;4.60;;;3.67;;
49876;SDS011;35771;48.978;9.294;2022-11-15T07:58:21;6.15;;;3.38;;
49876;SDS011;35771;48.978;9.294;2022-11-15T08:00:49;11.73;;;3.88;;
49876;SDS011;35771;48.978;9.294;2022-11-15T08:03:16;5.80;;;3.05;;
49876;SDS011;35771;48.978;9.294;2022-11-15T08:05:43;10.38;;;3.08;;
49876;SDS011;35771;48.978;9.294;2022-11-15T08:08:15;7.25;;;3.50;;
49876;SDS011;35771;48.978;9.294;2022-11-15T08:10:42;6.50;;;3.40;;
49876;SDS011;35771;48.978;9.294;2022-11-15T08:13:09;6.63;;;3.75;;
49876;SDS011;35771;48.978;9.294;2022-11-15T08:15:37;6.00;;;3.33;;
49876;SDS011;35771;48.978;9.294;2022-11-15T08:18:05;6.38;;;3.08;;
49876;SDS011;35771;48.978;9.294;2022-11-15T08:20:35;7.35;;;4.15;;
49876;SDS011;35771;48.978;9.294;2022-11-15T08:23:02;6.13;;;3.53;;
49876;SDS011;35771;48.978;9.294;2022-11-15T08:25:30;7.53;;;3.85;;
49876;SDS011;35771;48.978;9.294;2022-11-15T08:27:59;13.48;;;3.80;;
49876;SDS011;35771;48.978;9.294;2022-11-15T08:30:27;10.18;;;3.90;;
49876;SDS011;35771;48.978;9.294;2022-11-15T08:32:55;5.88;;;3.70;;
49876;SDS011;35771;48.978;9.294;2022-11-15T08:35:24;5.97;;;3.55;;
49876;SDS011;35771;48.978;9.294;2022-11-15T08:37:52;8.95;;;3.67;;
49876;SDS011;35771;48.978;9.294;2022-11-15T08:40:19;7.60;;;3.83;;
49876;SDS011;35771;48.978;9.294;2022-11-15T08:42:45;13.80;;;5.38;;
49876;SDS011;35771;48.978;9.294;2022-11-15T08:45:12;4.53;;;3.40;;
49876;SDS011;35771;48.978;9.294;2022-11-15T08:47:39;4.85;;;3.55;;
49876;SDS011;35771;48.978;9.294;2022-11-15T08:50:06;8.32;;;3.63;;
49876;SDS011;35771;48.978;9.294;2022-11-15T08:52:35;6.40;;;3.53;;
49876;SDS011;35771;48.978;9.294;2022-11-15T08:55:01;7.68;;;3.90;;
49876;SDS011;35771;48.978;9.294;2022-11-15T08:57:28;9.55;;;3.90;;
49876;SDS011;35771;48.978;9.294;2022-11-15T08:59:56;8.68;;;3.95;;
49876;SDS011;35771;48.978;9.294;2022-11-15T09:02:23;5.90;;;3.50;;
49876;SDS011;35771;48.978;9.294;2022-11-15T09:04:49;5.40;;;3.75;;
49876;SDS011;35771;48.978;9.294;2022-11-15T09:07:16;7.53;;;3.72;;
49876;SDS011;35771;48.978;9.294;2022-11-15T09:09:44;17.98;;;5.80;;
49876;SDS011;35771;48.978;9.294;2022-11-15T09:12:10;9.10;;;4.07;;
49876;SDS011;35771;48.978;9.294;2022-11-15T09:14:37;10.18;;;4.68;;
49876;SDS011;35771;48.978;9.294;2022-11-15T09:17:06;6.20;;;4.47;;
49876;SDS011;35771;48.978;9.294;2022-11-15T09:19:33;9.35;;;4.97;;
49876;SDS011;35771;48.978;9.294;2022-11-15T09:21:59;8.95;;;4.78;;
49876;SDS011;35771;48.978;9.294;2022-11-15T09:24:26;7.40;;;3.40;;
49876;SDS011;35771;48.978;9.294;2022-11-15T09:26:54;7.50;;;3.38;;
49876;SDS011;35771;48.978;9.294;2022-11-15T09:29:20;9.18;;;3.38;;
49876;SDS011;35771;48.978;9.294;2022-11-15T09:31:47;8.07;;;3.33;;
49876;SDS011;35771;48.978;9.294;2022-11-15T09:34:13;5.68;;;3.08;;
49876;SDS011;35771;48.978;9.294;2022-11-15T09:36:40;8.75;;;3.78;;
49876;SDS011;35771;48.978;9.294;2022-11-15T09:39:07;7.03;;;3.42;;
49876;SDS011;35771;48.978;9.294;2022-11-15T09:41:39;4.85;;;3.63;;
49876;SDS011;35771;48.978;9.294;2022-11-15T09:44:21;6.65;;;3.58;;
49876;SDS011;35771;48.978;9.294;2022-11-15T09:47:19;6.05;;;3.45;;
49876;SDS011;35771;48.978;9.294;2022-11-15T09:50:16;8.95;;;3.30;;
49876;SDS011;35771;48.978;9.294;2022-11-15T09:52:46;5.63;;;3.53;;
49876;SDS011;35771;48.978;9.294;2022-11-15T09:55:13;6.20;;;3.47;;
49876;SDS011;35771;48.978;9.294;2022-11-15T09:57:47;5.88;;;3.38;;
49876;SDS011;35771;48.978;9.294;2022-11-15T10:00:20;7.32;;;3.83;;
49876;SDS011;35771;48.978;9.294;2022-11-15T10:05:23;4.80;;;3.17;;
49876;SDS011;35771;48.978;9.294;2022-11-15T10:07:54;8.85;;;3.58;;
49876;SDS011;35771;48.978;9.294;2022-11-15T10:10:30;10.65;;;3.53;;
49876;SDS011;35771;48.978;9.294;2022-11-15T10:13:02;6.95;;;3.55;;
49876;SDS011;35771;48.978;9.294;2022-11-15T10:15:31;7.30;;;3.50;;
49876;SDS011;35771;48.978;9.294;2022-11-15T10:18:06;11.55;;;4.20;;
49876;SDS011;35771;48.978;9.294;2022-11-15T10:20:44;4.60;;;3.20;;
49876;SDS011;35771;48.978;9.294;2022-11-15T10:23:14;6.47;;;3.50;;
49876;SDS011;35771;48.978;9.294;2022-11-15T10:25:43;10.68;;;3.97;;
49876;SDS011;35771;48.978;9.294;2022-11-15T10:28:12;10.05;;;3.00;;
49876;SDS011;35771;48.978;9.294;2022-11-15T10:30:43;6.32;;;3.00;;
49876;SDS011;35771;48.978;9.294;2022-11-15T10:33:12;8.00;;;3.10;;
49876;SDS011;35771;48.978;9.294;2022-11-15T10:35:45;7.07;;;2.50;;
49876;SDS011;35771;48.978;9.294;2022-11-15T10:38:11;8.35;;;3.10;;
49876;SDS011;35771;48.978;9.294;2022-11-15T10:40:38;6.95;;;3.08;;
49876;SDS011;35771;48.978;9.294;2022-11-15T10:43:14;6.55;;;3.20;;
49876;SDS011;35771;48.978;9.294;2022-11-15T10:45:44;6.00;;;2.72;;
49876;SDS011;35771;48.978;9.294;2022-11-15T10:48:24;5.55;;;2.67;;
49876;SDS011;35771;48.978;9.294;2022-11-15T10:50:51;14.23;;;3.22;;
49876;SDS011;35771;48.978;9.294;2022-11-15T10:53:22;4.95;;;2.22;;
49876;SDS011;35771;48.978;9.294;2022-11-15T10:55:53;15.02;;;3.10;;
49876;SDS011;35771;48.978;9.294;2022-11-15T10:58:26;6.55;;;2.70;;
49876;SDS011;35771;48.978;9.294;2022-11-15T11:01:09;8.25;;;2.70;;
49876;SDS011;35771;48.978;9.294;2022-11-15T11:03:38;6.90;;;3.40;;
49876;SDS011;35771;48.978;9.294;2022-11-15T11:06:08;8.20;;;2.53;;
49876;SDS011;35771;48.978;9.294;2022-11-15T11:08:37;9.05;;;3.17;;
49876;SDS011;35771;48.978;9.294;2022-11-15T11:11:04;4.97;;;2.97;;
49876;SDS011;35771;48.978;9.294;2022-11-15T11:13:32;8.43;;;4.63;;
49876;SDS011;35771;48.978;9.294;2022-11-15T11:16:07;11.35;;;3.70;;
49876;SDS011;35771;48.978;9.294;2022-11-15T11:18:46;5.43;;;3.05;;
49876;SDS011;35771;48.978;9.294;2022-11-15T11:21:23;5.75;;;2.97;;
49876;SDS011;35771;48.978;9.294;2022-11-15T11:23:58;3.67;;;2.28;;
49876;SDS011;35771;48.978;9.294;2022-11-15T11:26:35;6.32;;;2.60;;
49876;SDS011;35771;48.978;9.294;2022-11-15T11:29:10;9.07;;;3.92;;
49876;SDS011;35771;48.978;9.294;2022-11-15T11:31:50;5.25;;;2.97;;
49876;SDS011;35771;48.978;9.294;2022-11-15T11:34:33;10.68;;;3.45;;
49876;SDS011;35771;48.978;9.294;2022-11-15T11:37:09;10.77;;;3.17;;
49876;SDS011;35771;48.978;9.294;2022-11-15T11:39:42;5.75;;;2.58;;
49876;SDS011;35771;48.978;9.294;2022-11-15T11:42:23;3.78;;;2.22;;
49876;SDS011;35771;48.978;9.294;2022-11-15T11:44:58;5.88;;;2.38;;
49876;SDS011;35771;48.978;9.294;2022-11-15T11:47:40;6.53;;;2.03;;
49876;SDS011;35771;48.978;9.294;2022-11-15T11:50:13;6.25;;;1.92;;
49876;SDS011;35771;48.978;9.294;2022-11-15T11:52:45;8.85;;;3.03;;
49876;SDS011;35771;48.978;9.294;2022-11-15T11:55:21;5.85;;;2.30;;
49876;SDS011;35771;48.978;9.294;2022-11-15T11:57:54;6.68;;;2.20;;
49876;SDS011;35771;48.978;9.294;2022-11-15T12:00:28;3.67;;;2.28;;
49876;SDS011;35771;48.978;9.294;2022-11-15T12:03:04;5.90;;;2.30;;
49876;SDS011;35771;48.978;9.294;2022-11-15T12:05:37;3.90;;;2.05;;
49876;SDS011;35771;48.978;9.294;2022-11-15T12:08:14;4.30;;;2.33;;
49876;SDS011;35771;48.978;9.294;2022-11-15T12:10:50;7.53;;;2.50;;
49876;SDS011;35771;48.978;9.294;2022-11-15T12:13:23;9.05;;;2.50;;
49876;SDS011;35771;48.978;9.294;2022-11-15T12:15:53;10.07;;;2.78;;
49876;SDS011;35771;48.978;9.294;2022-11-15T12:18:27;10.73;;;2.30;;
49876;SDS011;35771;48.978;9.294;2022-11-15T12:20:55;3.50;;;2.00;;
49876;SDS011;35771;48.978;9.294;2022-11-15T12:23:26;5.28;;;2.42;;
49876;SDS011;35771;48.978;9.294;2022-11-15T12:25:56;6.72;;;1.88;;
49876;SDS011;35771;48.978;9.294;2022-11-15T12:28:31;2.58;;;1.80;;
49876;SDS011;35771;48.978;9.294;2022-11-15T12:31:05;8.00;;;2.30;;
49876;SDS011;35771;48.978;9.294;2022-11-15T12:33:41;4.82;;;2.20;;
49876;SDS011;35771;48.978;9.294;2022-11-15T12:36:10;6.07;;;1.52;;
49876;SDS011;35771;48.978;9.294;2022-11-15T12:38:55;3.20;;;2.17;;
49876;SDS011;35771;48.978;9.294;2022-11-15T12:41:24;8.88;;;2.40;;
49876;SDS011;35771;48.978;9.294;2022-11-15T12:43:52;6.50;;;2.15;;
49876;SDS011;35771;48.978;9.294;2022-11-15T12:46:20;5.80;;;2.42;;
49876;SDS011;35771;48.978;9.294;2022-11-15T12:49:07;4.32;;;2.33;;
49876;SDS011;35771;48.978;9.294;2022-11-15T12:57:39;10.48;;;1.95;;
49876;SDS011;35771;48.978;9.294;2022-11-15T13:03:21;6.15;;;2.40;;
49876;SDS011;35771;48.978;9.294;2022-11-15T13:06:08;5.68;;;2.35;;
49876;SDS011;35771;48.978;9.294;2022-11-15T13:08:55;6.47;;;2.43;;
49876;SDS011;35771;48.978;9.294;2022-11-15T13:17:24;3.42;;;1.77;;
49876;SDS011;35771;48.978;9.294;2022-11-15T13:19:53;5.70;;;2.00;;
49876;SDS011;35771;48.978;9.294;2022-11-15T13:22:27;4.88;;;2.38;;
49876;SDS011;35771;48.978;9.294;2022-11-15T13:25:25;3.67;;;1.80;;
49876;SDS011;35771;48.978;9.294;2022-11-15T13:28:09;4.32;;;2.08;;
49876;SDS011;35771;48.978;9.294;2022-11-15T13:30:48;12.48;;;2.65;;
49876;SDS011;35771;48.978;9.294;2022-11-15T13:33:17;6.45;;;1.90;;
49876;SDS011;35771;48.978;9.294;2022-11-15T13:35:46;8.13;;;2.10;;
49876;SDS011;35771;48.978;9.294;2022-11-15T13:40:45;5.50;;;1.75;;
49876;SDS011;35771;48.978;9.294;2022-11-15T13:43:15;4.85;;;2.03;;
49876;SDS011;35771;48.978;9.294;2022-11-15T13:46:03;5.75;;;2.47;;
49876;SDS011;35771;48.978;9.294;2022-11-15T13:48:36;4.05;;;2.00;;
49876;SDS011;35771;48.978;9.294;2022-11-15T13:51:03;5.07;;;2.17;;
49876;SDS011;35771;48.978;9.294;2022-11-15T13:53:33;4.65;;;1.95;;
49876;SDS011;35771;48.978;9.294;2022-11-15T13:56:03;3.33;;;1.80;;
49876;SDS011;35771;48.978;9.294;2022-11-15T13:58:30;4.85;;;1.80;;
49876;SDS011;35771;48.978;9.294;2022-11-15T14:00:58;4.70;;;1.85;;
49876;SDS011;35771;48.978;9.294;2022-11-15T14:03:27;3.30;;;1.38;;
49876;SDS011;35771;48.978;9.294;2022-11-15T14:06:03;3.63;;;1.65;;
49876;SDS011;35771;48.978;9.294;2022-11-15T14:08:34;4.95;;;1.95;;
49876;SDS011;35771;48.978;9.294;2022-11-15T14:11:08;3.92;;;1.60;;
49876;SDS011;35771;48.978;9.294;2022-11-15T14:13:38;4.88;;;1.60;;
49876;SDS011;35771;48.978;9.294;2022-11-15T14:16:15;6.05;;;1.80;;
49876;SDS011;35771;48.978;9.294;2022-11-15T14:18:45;5.43;;;2.25;;
49876;SDS011;35771;48.978;9.294;2022-11-15T14:21:13;6.13;;;2.10;;
49876;SDS011;35771;48.978;9.294;2022-11-15T14:23:41;3.60;;;2.15;;
49876;SDS011;35771;48.978;9.294;2022-11-15T14:26:11;9.20;;;2.30;;
49876;SDS011;35771;48.978;9.294;2022-11-15T14:28:53;4.43;;;2.53;;
49876;SDS011;35771;48.978;9.294;2022-11-15T14:31:19;6.68;;;2.13;;
49876;SDS011;35771;48.978;9.294;2022-11-15T14:33:47;4.95;;;2.00;;
49876;SDS011;35771;48.978;9.294;2022-11-15T14:36:15;4.82;;;1.98;;
49876;SDS011;35771;48.978;9.294;2022-11-15T14:38:44;3.20;;;1.73;;
49876;SDS011;35771;48.978;9.294;2022-11-15T14:41:19;3.22;;;1.77;;
49876;SDS011;35771;48.978;9.294;2022-11-15T14:43:47;5.90;;;1.85;;
49876;SDS011;35771;48.978;9.294;2022-11-15T14:46:14;3.97;;;1.85;;
49876;SDS011;35771;48.978;9.294;2022-11-15T14:48:40;5.25;;;1.98;;
49876;SDS011;35771;48.978;9.294;2022-11-15T14:51:11;3.45;;;1.73;;
49876;SDS011;35771;48.978;9.294;2022-11-15T14:53:39;4.65;;;1.95;;
49876;SDS011;35771;48.978;9.294;2022-11-15T14:56:07;6.13;;;2.47;;
49876;SDS011;35771;48.978;9.294;2022-11-15T14:58:34;3.33;;;1.90;;
49876;SDS011;35771;48.978;9.294;2022-11-15T15:01:01;3.70;;;2.00;;
49876;SDS011;35771;48.978;9.294;2022-11-15T15:03:29;5.30;;;2.03;;
49876;SDS011;35771;48.978;9.294;2022-11-15T15:05:56;4.88;;;1.85;;
49876;SDS011;35771;48.978;9.294;2022-11-15T15:08:22;4.45;;;2.28;;
49876;SDS011;35771;48.978;9.294;2022-11-15T15:10:49;3.00;;;1.80;;
49876;SDS011;35771;48.978;9.294;2022-11-15T15:13:18;4.95;;;1.40;;
49876;SDS011;35771;48.978;9.294;2022-11-15T15:15:45;2.67;;;1.98;;
49876;SDS011;35771;48.978;9.294;2022-11-15T15:18:13;3.08;;;1.50;;
49876;SDS011;35771;48.978;9.294;2022-11-15T15:20:41;2.88;;;1.70;;
49876;SDS011;35771;48.978;9.294;2022-11-15T15:25:40;3.13;;;2.10;;
49876;SDS011;35771;48.978;9.294;2022-11-15T15:28:07;7.18;;;1.95;;
49876;SDS011;35771;48.978;9.294;2022-11-15T15:30:35;3.95;;;1.65;;
49876;SDS011;35771;48.978;9.294;2022-11-15T15:33:02;2.00;;;1.40;;
49876;SDS011;35771;48.978;9.294;2022-11-15T15:35:29;4.65;;;1.50;;
49876;SDS011;35771;48.978;9.294;2022-11-15T15:37:57;2.13;;;1.33;;
49876;SDS011;35771;48.978;9.294;2022-11-15T15:40:25;5.32;;;1.73;;
49876;SDS011;35771;48.978;9.294;2022-11-15T15:42:54;2.83;;;1.33;;
49876;SDS011;35771;48.978;9.294;2022-11-15T15:45:20;3.47;;;1.60;;
49876;SDS011;35771;48.978;9.294;2022-11-15T15:47:48;1.98;;;1.20;;
49876;SDS011;35771;48.978;9.294;2022-11-15T15:50:20;1.50;;;1.17;;
49876;SDS011;35771;48.978;9.294;2022-11-15T15:52:48;9.13;;;1.73;;
49876;SDS011;35771;48.978;9.294;2022-11-15T15:55:15;8.55;;;1.48;;
49876;SDS011;35771;48.978;9.294;2022-11-15T15:57:42;3.97;;;1.60;;
49876;SDS011;35771;48.978;9.294;2022-11-15T16:00:09;4.97;;;1.75;;
49876;SDS011;35771;48.978;9.294;2022-11-15T16:02:36;3.00;;;1.88;;
49876;SDS011;35771;48.978;9.294;2022-11-15T16:05:05;3.50;;;2.00;;
49876;SDS011;35771;48.978;9.294;2022-11-15T16:07:32;5.55;;;2.08;;
49876;SDS011;35771;48.978;9.294;2022-11-15T16:09:58;3.05;;;1.70;;
49876;SDS011;35771;48.978;9.294;2022-11-15T16:12:28;6.20;;;2.08;;
49876;SDS011;35771;48.978;9.294;2022-11-15T16:14:55;5.38;;;2.20;;
49876;SDS011;35771;48.978;9.294;2022-11-15T16:17:22;6.45;;;2.20;;
49876;SDS011;35771;48.978;9.294;2022-11-15T16:19:51;8.20;;;2.13;;
49876;SDS011;35771;48.978;9.294;2022-11-15T16:22:19;3.53;;;2.10;;
49876;SDS011;35771;48.978;9.294;2022-11-15T16:24:45;4.20;;;2.50;;
49876;SDS011;35771;48.978;9.294;2022-11-15T16:27:13;4.15;;;1.98;;
49876;SDS011;35771;48.978;9.294;2022-11-15T16:29:40;8.63;;;2.60;;
49876;SDS011;35771;48.978;9.294;2022-11-15T16:32:07;5.25;;;2.58;;
49876;SDS011;35771;48.978;9.294;2022-11-15T16:34:33;6.38;;;2.92;;
49876;SDS011;35771;48.978;9.294;2022-11-15T16:37:00;2.72;;;2.05;;
49876;SDS011;35771;48.978;9.294;2022-11-15T16:39:28;5.32;;;2.58;;
49876;SDS011;35771;48.978;9.294;2022-11-15T16:41:55;3.45;;;1.90;;
49876;SDS011;35771;48.978;9.294;2022-11-15T16:44:22;5.28;;;2.15;;
49876;SDS011;35771;48.978;9.294;2022-11-15T16:46:49;11.35;;;2.45;;
49876;SDS011;35771;48.978;9.294;2022-11-15T16:49:17;2.88;;;2.00;;
49876;SDS011;35771;48.978;9.294;2022-11-15T16:51:48;5.45;;;1.63;;
49876;SDS011;35771;48.978;9.294;2022-11-15T16:54:16;3.72;;;1.98;;
49876;SDS011;35771;48.978;9.294;2022-11-15T16:56:44;3.58;;;1.70;;
49876;SDS011;35771;48.978;9.294;2022-11-15T16:59:13;4.93;;;2.03;;
49876;SDS011;35771;48.978;9.294;2022-11-15T17:01:42;7.70;;;1.73;;
49876;SDS011;35771;48.978;9.294;2022-11-15T17:04:18;6.97;;;2.20;;
49876;SDS011;35771;48.978;9.294;2022-11-15T17:06:47;6.03;;;1.95;;
49876;SDS011;35771;48.978;9.294;2022-11-15T17:09:14;3.28;;;2.10;;
49876;SDS011;35771;48.978;9.294;2022-11-15T17:11:44;3.25;;;1.88;;
49876;SDS011;35771;48.978;9.294;2022-11-15T17:14:11;3.78;;;2.33;;
49876;SDS011;35771;48.978;9.294;2022-11-15T17:16:38;2.28;;;1.50;;
49876;SDS011;35771;48.978;9.294;2022-11-15T17:19:10;2.28;;;1.60;;
49876;SDS011;35771;48.978;9.294;2022-11-15T17:21:40;2.28;;;1.60;;
49876;SDS011;35771;48.978;9.294;2022-11-15T17:24:07;2.22;;;1.33;;
49876;SDS011;35771;48.978;9.294;2022-11-15T17:26:34;4.90;;;2.47;;
49876;SDS011;35771;48.978;9.294;2022-11-15T17:29:03;7.00;;;2.10;;
49876;SDS011;35771;48.978;9.294;2022-11-15T17:31:31;13.77;;;6.85;;
49876;SDS011;35771;48.978;9.294;2022-11-15T17:33:59;3.53;;;2.33;;
49876;SDS011;35771;48.978;9.294;2022-11-15T17:36:26;4.25;;;1.85;;
49876;SDS011;35771;48.978;9.294;2022-11-15T17:38:52;4.18;;;2.20;;
49876;SDS011;35771;48.978;9.294;2022-11-15T17:41:19;4.75;;;2.65;;
49876;SDS011;35771;48.978;9.294;2022-11-15T17:43:46;5.97;;;2.08;;
49876;SDS011;35771;48.978;9.294;2022-11-15T17:46:15;5.30;;;2.50;;
49876;SDS011;35771;48.978;9.294;2022-11-15T17:48:43;3.30;;;2.10;;
49876;SDS011;35771;48.978;9.294;2022-11-15T17:51:10;3.00;;;2.00;;
49876;SDS011;35771;48.978;9.294;2022-11-15T17:53:40;2.67;;;2.30;;
49876;SDS011;35771;48.978;9.294;2022-11-15T17:56:08;6.80;;;2.60;;
49876;SDS011;35771;48.978;9.294;2022-11-15T17:58:36;3.35;;;2.03;;
49876;SDS011;35771;48.978;9.294;2022-11-15T18:01:10;4.97;;;2.33;;
49876;SDS011;35771;48.978;9.294;2022-11-15T18:03:42;5.13;;;2.45;;
49876;SDS011;35771;48.978;9.294;2022-11-15T18:06:09;4.18;;;2.60;;
49876;SDS011;35771;48.978;9.294;2022-11-15T18:08:37;3.53;;;2.10;;
49876;SDS011;35771;48.978;9.294;2022-11-15T18:11:05;4.25;;;2.10;;
49876;SDS011;35771;48.978;9.294;2022-11-15T18:13:33;3.40;;;2.50;;
49876;SDS011;35771;48.978;9.294;2022-11-15T18:16:00;4.50;;;2.40;;
49876;SDS011;35771;48.978;9.294;2022-11-15T18:18:30;4.47;;;2.42;;
49876;SDS011;35771;48.978;9.294;2022-11-15T18:20:59;6.53;;;2.70;;
49876;SDS011;35771;48.978;9.294;2022-11-15T18:23:28;5.38;;;3.55;;
49876;SDS011;35771;48.978;9.294;2022-11-15T18:25:55;4.05;;;2.53;;
49876;SDS011;35771;48.978;9.294;2022-11-15T18:28:21;3.75;;;2.58;;
49876;SDS011;35771;48.978;9.294;2022-11-15T18:30:48;7.18;;;2.58;;
49876;SDS011;35771;48.978;9.294;2022-11-15T18:33:14;9.52;;;2.75;;
49876;SDS011;35771;48.978;9.294;2022-11-15T18:35:42;6.13;;;3.20;;
49876;SDS011;35771;48.978;9.294;2022-11-15T18:38:09;5.32;;;3.20;;
49876;SDS011;35771;48.978;9.294;2022-11-15T18:40:35;7.10;;;3.22;;
49876;SDS011;35771;48.978;9.294;2022-11-15T18:43:02;4.70;;;2.90;;
49876;SDS011;35771;48.978;9.294;2022-11-15T18:45:28;7.22;;;3.50;;
49876;SDS011;35771;48.978;9.294;2022-11-15T18:47:56;7.07;;;2.92;;
49876;SDS011;35771;48.978;9.294;2022-11-15T18:50:22;10.73;;;3.50;;
49876;SDS011;35771;48.978;9.294;2022-11-15T18:52:50;7.80;;;3.40;;
49876;SDS011;35771;48.978;9.294;2022-11-15T18:55:17;7.05;;;3.67;;
49876;SDS011;35771;48.978;9.294;2022-11-15T18:57:43;14.90;;;7.80;;
49876;SDS011;35771;48.978;9.294;2022-11-15T19:00:10;9.52;;;4.13;;
49876;SDS011;35771;48.978;9.294;2022-11-15T19:02:38;4.97;;;3.50;;
49876;SDS011;35771;48.978;9.294;2022-11-15T19:05:05;6.28;;;3.55;;
49876;SDS011;35771;48.978;9.294;2022-11-15T19:07:32;7.00;;;3.53;;
49876;SDS011;35771;48.978;9.294;2022-11-15T19:09:59;10.02;;;3.63;;
49876;SDS011;35771;48.978;9.294;2022-11-15T19:12:26;6.97;;;3.75;;
49876;SDS011;35771;48.978;9.294;2022-11-15T19:14:53;9.00;;;4.78;;
49876;SDS011;35771;48.978;9.294;2022-11-15T19:17:19;7.35;;;4.53;;
49876;SDS011;35771;48.978;9.294;2022-11-15T19:19:46;7.22;;;4.82;;
49876;SDS011;35771;48.978;9.294;2022-11-15T19:22:12;7.47;;;5.05;;
49876;SDS011;35771;48.978;9.294;2022-11-15T19:24:39;6.93;;;4.95;;
49876;SDS011;35771;48.978;9.294;2022-11-15T19:27:07;10.18;;;6.22;;
49876;SDS011;35771;48.978;9.294;2022-11-15T19:29:33;11.35;;;5.85;;
49876;SDS011;35771;48.978;9.294;2022-11-15T19:32:00;9.45;;;4.97;;
49876;SDS011;35771;48.978;9.294;2022-11-15T19:34:27;7.20;;;4.65;;
49876;SDS011;35771;48.978;9.294;2022-11-15T19:36:54;9.70;;;5.90;;
49876;SDS011;35771;48.978;9.294;2022-11-15T19:39:21;6.78;;;4.82;;
49876;SDS011;35771;48.978;9.294;2022-11-15T19:41:47;10.30;;;4.95;;
49876;SDS011;35771;48.978;9.294;2022-11-15T19:44:15;13.10;;;5.28;;
49876;SDS011;35771;48.978;9.294;2022-11-15T19:46:42;11.32;;;5.55;;
49876;SDS011;35771;48.978;9.294;2022-11-15T19:49:09;10.68;;;5.30;;
49876;SDS011;35771;48.978;9.294;2022-11-15T19:51:36;12.50;;;5.20;;
49876;SDS011;35771;48.978;9.294;2022-11-15T19:54:02;9.65;;;5.82;;
49876;SDS011;35771;48.978;9.294;2022-11-15T19:56:33;12.15;;;5.55;;
49876;SDS011;35771;48.978;9.294;2022-11-15T19:59:00;14.05;;;5.75;;
49876;SDS011;35771;48.978;9.294;2022-11-15T20:01:30;12.15;;;5.55;;
49876;SDS011;35771;48.978;9.294;2022-11-15T20:04:00;11.30;;;4.78;;
49876;SDS011;35771;48.978;9.294;2022-11-15T20:06:27;16.70;;;6.63;;
49876;SDS011;35771;48.978;9.294;2022-11-15T20:08:55;11.05;;;5.20;;
49876;SDS011;35771;48.978;9.294;2022-11-15T20:11:22;8.07;;;5.13;;
49876;SDS011;35771;48.978;9.294;2022-11-15T20:13:48;8.45;;;5.13;;
49876;SDS011;35771;48.978;9.294;2022-11-15T20:16:16;11.52;;;5.40;;
49876;SDS011;35771;48.978;9.294;2022-11-15T20:18:45;12.40;;;5.38;;
49876;SDS011;35771;48.978;9.294;2022-11-15T20:21:12;13.82;;;5.47;;
49876;SDS011;35771;48.978;9.294;2022-11-15T20:23:39;10.45;;;4.82;;
49876;SDS011;35771;48.978;9.294;2022-11-15T20:26:06;8.52;;;4.03;;
49876;SDS011;35771;48.978;9.294;2022-11-15T20:28:34;10.20;;;4.88;;
49876;SDS011;35771;48.978;9.294;2022-11-15T20:31:02;11.23;;;4.32;;
49876;SDS011;35771;48.978;9.294;2022-11-15T20:33:29;11.68;;;4.80;;
49876;SDS011;35771;48.978;9.294;2022-11-15T20:35:57;19.65;;;10.73;;
49876;SDS011;35771;48.978;9.294;2022-11-15T20:38:29;12.98;;;7.88;;
49876;SDS011;35771;48.978;9.294;2022-11-15T20:40:55;11.13;;;5.22;;
49876;SDS011;35771;48.978;9.294;2022-11-15T20:43:22;6.75;;;4.88;;
49876;SDS011;35771;48.978;9.294;2022-11-15T20:45:48;8.60;;;4.50;;
49876;SDS011;35771;48.978;9.294;2022-11-15T20:48:15;10.55;;;4.68;;
49876;SDS011;35771;48.978;9.294;2022-11-15T20:50:43;8.40;;;4.72;;
49876;SDS011;35771;48.978;9.294;2022-11-15T20:53:13;9.80;;;4.70;;
49876;SDS011;35771;48.978;9.294;2022-11-15T20:55:41;11.00;;;4.90;;
49876;SDS011;35771;48.978;9.294;2022-11-15T20:58:11;25.63;;;9.80;;
49876;SDS011;35771;48.978;9.294;2022-11-15T21:00:38;18.02;;;8.20;;
49876;SDS011;35771;48.978;9.294;2022-11-15T21:03:06;13.23;;;6.82;;
49876;SDS011;35771;48.978;9.294;2022-11-15T21:05:33;10.05;;;4.93;;
49876;SDS011;35771;48.978;9.294;2022-11-15T21:08:00;11.45;;;6.38;;
49876;SDS011;35771;48.978;9.294;2022-11-15T21:10:28;11.65;;;6.30;;
49876;SDS011;35771;48.978;9.294;2022-11-15T21:13:12;11.60;;;5.38;;
49876;SDS011;35771;48.978;9.294;2022-11-15T21:15:39;12.57;;;6.75;;
49876;SDS011;35771;48.978;9.294;2022-11-15T21:18:05;14.05;;;7.00;;
49876;SDS011;35771;48.978;9.294;2022-11-15T21:20:32;9.77;;;5.97;;
49876;SDS011;35771;48.978;9.294;2022-11-15T21:22:59;13.25;;;6.10;;
49876;SDS011;35771;48.978;9.294;2022-11-15T21:25:27;11.77;;;6.55;;
49876;SDS011;35771;48.978;9.294;2022-11-15T21:27:54;9.48;;;5.47;;
49876;SDS011;35771;48.978;9.294;2022-11-15T21:30:21;11.45;;;5.80;;
49876;SDS011;35771;48.978;9.294;2022-11-15T21:32:48;7.95;;;5.43;;
49876;SDS011;35771;48.978;9.294;2022-11-15T21:35:14;9.38;;;5.60;;
49876;SDS011;35771;48.978;9.294;2022-11-15T21:37:42;13.40;;;6.15;;
49876;SDS011;35771;48.978;9.294;2022-11-15T21:40:09;10.68;;;5.18;;
49876;SDS011;35771;48.978;9.294;2022-11-15T21:42:38;11.93;;;5.80;;
49876;SDS011;35771;48.978;9.294;2022-11-15T21:45:07;13.15;;;5.93;;
49876;SDS011;35771;48.978;9.294;2022-11-15T21:47:34;10.85;;;5.32;;
49876;SDS011;35771;48.978;9.294;2022-11-15T21:50:01;11.40;;;5.82;;
49876;SDS011;35771;48.978;9.294;2022-11-15T21:52:28;10.85;;;5.57;;
49876;SDS011;35771;48.978;9.294;2022-11-15T21:54:55;10.20;;;5.00;;
49876;SDS011;35771;48.978;9.294;2022-11-15T21:57:22;12.50;;;5.10;;
49876;SDS011;35771;48.978;9.294;2022-11-15T21:59:50;11.70;;;4.45;;
49876;SDS011;35771;48.978;9.294;2022-11-15T22:02:34;7.75;;;4.13;;
49876;SDS011;35771;48.978;9.294;2022-11-15T22:05:00;5.57;;;3.40;;
49876;SDS011;35771;48.978;9.294;2022-11-15T22:07:27;7.43;;;3.40;;
49876;SDS011;35771;48.978;9.294;2022-11-15T22:09:54;8.02;;;3.53;;
49876;SDS011;35771;48.978;9.294;2022-11-15T22:12:23;10.95;;;3.58;;
49876;SDS011;35771;48.978;9.294;2022-11-15T22:14:51;5.20;;;3.35;;
49876;SDS011;35771;48.978;9.294;2022-11-15T22:17:18;5.47;;;3.03;;
49876;SDS011;35771;48.978;9.294;2022-11-15T22:19:45;5.38;;;3.33;;
49876;SDS011;35771;48.978;9.294;2022-11-15T22:22:12;8.05;;;3.05;;
49876;SDS011;35771;48.978;9.294;2022-11-15T22:24:39;5.22;;;2.92;;
49876;SDS011;35771;48.978;9.294;2022-11-15T22:27:06;10.27;;;4.00;;
49876;SDS011;35771;48.978;9.294;2022-11-15T22:29:32;10.35;;;4.25;;
49876;SDS011;35771;48.978;9.294;2022-11-15T22:32:00;10.07;;;4.57;;
49876;SDS011;35771;48.978;9.294;2022-11-15T22:34:27;10.00;;;4.78;;
49876;SDS011;35771;48.978;9.294;2022-11-15T22:36:53;9.50;;;5.00;;
49876;SDS011;35771;48.978;9.294;2022-11-15T22:39:20;8.13;;;4.72;;
49876;SDS011;35771;48.978;9.294;2022-11-15T22:41:47;10.20;;;4.63;;
49876;SDS011;35771;48.978;9.294;2022-11-15T22:44:13;8.80;;;5.35;;
49876;SDS011;35771;48.978;9.294;2022-11-15T22:46:40;15.13;;;6.43;;